createdAt,value
2019-03-22T03:36:29.192Z,49.90
2019-03-22T03:38:57.159Z,49.85
2019-03-22T03:41:25.409Z,49.89
2019-03-22T03:43:53.388Z,49.54
2019-03-22T03:46:21.380Z,50.41
2019-03-22T03:48:51.004Z,50.35
2019-03-22T03:51:19.039Z,50.60
2019-03-22T03:53:47.145Z,50.79
2019-03-22T03:56:15.302Z,50.18
2019-03-22T03:58:52.280Z,50.87
2019-03-22T04:01:13.061Z,50.62
2019-03-22T04:03:41.051Z,50.07
2019-03-22T04:06:09.025Z,50.20
2019-03-22T04:08:37.099Z,50.27
2019-03-22T04:11:05.469Z,49.69
2019-03-22T04:13:33.539Z,49.81
2019-03-22T04:16:01.613Z,50.51
2019-03-22T04:18:29.679Z,50.46
2019-03-22T04:20:58.024Z,49.50
2019-03-22T04:23:26.011Z,49.99
2019-03-22T04:25:54.281Z,49.56
2019-03-22T04:28:22.377Z,50.48
2019-03-22T04:30:52.785Z,49.84
2019-03-22T04:33:20.789Z,49.76
2019-03-22T04:35:48.776Z,50.20
2019-03-22T04:38:16.849Z,50.20
2019-03-22T04:40:44.819Z,49.94
2019-03-22T04:43:12.819Z,49.91
2019-03-22T04:45:40.810Z,50.06
2019-03-22T04:48:10.964Z,49.91
2019-03-22T04:50:39.635Z,49.83
2019-03-22T04:53:07.630Z,49.91
2019-03-22T04:55:35.606Z,50.16
2019-03-22T04:58:04.023Z,50.38
2019-03-22T05:00:32.020Z,50.07
2019-03-22T05:03:00.075Z,50.09
2019-03-22T05:05:28.045Z,50.28
2019-03-22T05:07:57.376Z,49.98
2019-03-22T05:10:25.371Z,50.01
2019-03-22T05:12:53.383Z,50.30
2019-03-22T05:15:21.359Z,50.13
2019-03-22T05:17:49.333Z,50.22
2019-03-22T05:20:17.365Z,50.10
2019-03-22T05:22:45.408Z,50.10
2019-03-22T05:25:13.382Z,50.06
2019-03-22T05:27:41.358Z,50.71
2019-03-22T05:30:11.080Z,50.26
2019-03-22T05:32:39.091Z,50.20
2019-03-22T05:35:07.475Z,49.89
2019-03-22T05:37:35.572Z,49.93
2019-03-22T05:40:03.862Z,50.00
2019-03-22T05:42:31.835Z,50.47
2019-03-22T05:44:59.830Z,50.07
2019-03-22T05:47:27.833Z,50.24
2019-03-22T05:49:57.116Z,49.89
2019-03-22T05:52:25.207Z,49.89
2019-03-22T05:54:53.206Z,50.21
2019-03-22T05:57:21.196Z,50.31
2019-03-22T05:59:49.210Z,50.43
2019-03-22T06:02:17.217Z,49.98
2019-03-22T06:04:45.229Z,50.15
2019-03-22T06:07:13.235Z,50.68
2019-03-22T06:09:41.241Z,50.77
2019-03-22T06:12:09.267Z,50.19
2019-03-22T06:14:37.240Z,49.79
2019-03-22T06:17:05.362Z,50.19
2019-03-22T06:19:33.522Z,51.03
2019-03-22T06:22:01.611Z,51.09
2019-03-22T06:24:29.635Z,51.41
2019-03-22T06:26:57.662Z,50.65
2019-03-22T06:29:25.689Z,49.92
2019-03-22T06:31:53.733Z,49.96
2019-03-22T06:34:21.741Z,50.62
2019-03-22T06:36:52.012Z,50.09
2019-03-22T06:39:20.092Z,49.94
2019-03-22T06:41:48.180Z,49.65
2019-03-22T06:44:16.222Z,50.00
2019-03-22T06:46:44.205Z,50.16
2019-03-22T06:49:12.183Z,49.81
2019-03-22T06:51:40.234Z,50.69
2019-03-22T06:54:08.304Z,50.79
2019-03-22T06:56:36.338Z,50.83
2019-03-22T06:59:04.471Z,49.93
2019-03-22T07:01:32.854Z,50.27
2019-03-22T07:04:00.843Z,50.36
2019-03-22T07:06:28.836Z,50.32
2019-03-22T07:08:56.906Z,50.18
2019-03-22T07:11:24.999Z,50.39
2019-03-22T07:13:52.995Z,50.75
2019-03-22T07:16:20.971Z,50.14
2019-03-22T07:18:50.154Z,50.27
2019-03-22T07:21:21.748Z,50.88
2019-03-22T07:23:49.326Z,49.96
2019-03-22T07:26:17.299Z,51.07
2019-03-22T07:28:45.319Z,50.97
2019-03-22T07:31:13.322Z,50.84
2019-03-22T07:33:41.330Z,50.93
2019-03-22T07:36:09.318Z,51.16
2019-03-22T07:38:37.302Z,50.42
2019-03-22T07:41:05.533Z,50.35
2019-03-22T07:43:33.517Z,50.05
2019-03-22T07:46:01.506Z,50.99
2019-03-22T07:48:29.490Z,50.20
2019-03-22T07:50:57.487Z,50.79
2019-03-22T07:53:25.467Z,50.42
2019-03-22T07:55:53.815Z,49.99
2019-03-22T07:58:23.470Z,49.96
2019-03-22T08:00:51.474Z,50.46
2019-03-22T08:03:19.496Z,50.31
2019-03-22T08:05:51.533Z,50.94
2019-03-22T08:08:17.259Z,50.52
2019-03-22T08:10:45.323Z,50.08
2019-03-22T08:13:13.302Z,50.38
2019-03-22T08:15:41.395Z,50.19
2019-03-22T08:18:09.413Z,50.14
2019-03-22T08:20:38.746Z,50.67
2019-03-22T08:23:16.518Z,50.63
2019-03-22T08:25:44.483Z,49.83
2019-03-22T08:28:12.482Z,50.20
2019-03-22T08:30:44.004Z,50.46
2019-03-22T08:33:12.011Z,49.57
2019-03-22T08:35:40.174Z,50.48
2019-03-22T08:38:08.154Z,49.91
2019-03-22T08:40:36.144Z,50.55
2019-03-22T08:43:04.116Z,49.44
2019-03-22T08:45:32.170Z,50.27
2019-03-22T08:48:00.166Z,50.39
2019-03-22T08:50:28.272Z,50.30
2019-03-22T08:52:56.324Z,51.05
2019-03-22T08:55:24.307Z,50.68
2019-03-22T08:57:52.649Z,50.44
2019-03-22T09:00:20.727Z,50.50
2019-03-22T09:02:49.844Z,50.71
2019-03-22T09:05:17.934Z,50.93
2019-03-22T09:07:45.943Z,49.74
2019-03-22T09:10:16.178Z,50.54
2019-03-22T09:12:44.345Z,50.15
2019-03-22T09:15:12.403Z,50.55
2019-03-22T09:17:40.470Z,50.65
2019-03-22T09:20:08.571Z,51.09
2019-03-22T09:22:36.534Z,50.98
2019-03-22T09:25:04.816Z,51.27
2019-03-22T09:27:32.948Z,50.90
2019-03-22T09:30:01.015Z,50.69
2019-03-22T09:32:29.082Z,50.57
2019-03-22T09:34:59.705Z,50.89
2019-03-22T09:37:26.787Z,51.05
2019-03-22T09:39:54.753Z,50.95
2019-03-22T09:42:22.761Z,49.57
2019-03-22T09:44:50.817Z,50.08
2019-03-22T09:47:18.860Z,50.90
2019-03-22T09:49:52.076Z,51.24
2019-03-22T09:52:20.243Z,51.34
2019-03-22T09:54:48.302Z,51.54
2019-03-22T09:57:16.359Z,50.77
2019-03-22T09:59:44.498Z,50.53
2019-03-22T10:02:12.478Z,50.94
2019-03-22T10:04:40.458Z,50.58
2019-03-22T10:07:08.472Z,50.99
2019-03-22T10:09:36.512Z,50.99
2019-03-22T10:12:04.549Z,51.06
2019-03-22T10:14:32.592Z,50.43
2019-03-22T10:17:00.655Z,51.30
2019-03-22T10:19:28.753Z,50.73
2019-03-22T10:21:56.845Z,51.74
2019-03-22T10:24:24.970Z,52.13
2019-03-22T10:26:53.224Z,51.32
2019-03-22T10:29:23.083Z,51.40
2019-03-22T10:31:51.095Z,51.13
2019-03-22T10:34:19.095Z,51.31
2019-03-22T10:36:47.216Z,50.20
2019-03-22T10:39:15.309Z,49.66
2019-03-22T10:41:43.379Z,50.03
2019-03-22T10:44:11.451Z,50.86
2019-03-22T10:46:39.534Z,49.71
2019-03-22T10:49:07.647Z,49.31
2019-03-22T10:51:35.680Z,50.74
2019-03-22T10:54:03.726Z,49.47
2019-03-22T10:56:31.740Z,50.36
2019-03-22T10:58:59.742Z,50.92
2019-03-22T11:01:27.782Z,49.69
2019-03-22T11:03:55.865Z,49.13
2019-03-22T11:06:27.030Z,49.41
2019-03-22T11:08:57.315Z,49.53
2019-03-22T11:11:25.290Z,49.11
2019-03-22T11:13:53.387Z,50.42
2019-03-22T11:16:21.362Z,49.00
2019-03-22T11:18:49.351Z,49.21
2019-03-22T11:21:17.355Z,50.16
2019-03-22T11:23:45.328Z,49.23
2019-03-22T11:26:13.336Z,49.32
2019-03-22T11:28:41.358Z,49.14
2019-03-22T11:31:09.416Z,49.25
2019-03-22T11:33:37.428Z,49.41
2019-03-22T11:36:05.516Z,49.64
2019-03-22T11:38:33.550Z,49.34
2019-03-22T11:41:01.619Z,48.96
2019-03-22T11:43:29.627Z,49.00
2019-03-22T11:45:57.744Z,49.01
2019-03-22T11:48:29.262Z,49.11
2019-03-22T11:50:57.260Z,49.42
2019-03-22T11:53:25.270Z,49.48
2019-03-22T11:55:53.242Z,50.15
2019-03-22T11:58:21.227Z,49.29
2019-03-22T12:00:49.244Z,49.61
2019-03-22T12:03:17.293Z,49.40
2019-03-22T12:05:45.664Z,49.41
2019-03-22T12:08:13.861Z,49.56
2019-03-22T12:10:42.295Z,49.57
2019-03-22T12:13:10.690Z,50.34
2019-03-22T12:15:38.957Z,50.47
2019-03-22T12:18:07.010Z,49.75
2019-03-22T12:20:35.127Z,49.75
2019-03-22T12:23:03.413Z,50.49
2019-03-22T12:25:31.580Z,49.84
2019-03-22T12:28:00.494Z,50.21
2019-03-22T12:30:28.625Z,50.65
2019-03-22T12:32:56.756Z,49.88
2019-03-22T12:35:24.810Z,50.09
2019-03-22T12:37:52.947Z,50.34
2019-03-22T12:40:21.369Z,50.48
2019-03-22T12:42:49.823Z,50.31
2019-03-22T12:45:21.529Z,50.51
2019-03-22T12:47:49.875Z,52.77
2019-03-22T12:50:17.981Z,51.00
2019-03-22T12:52:46.062Z,50.60
2019-03-22T12:55:14.244Z,50.75
2019-03-22T12:57:42.337Z,50.98
2019-03-22T13:00:12.220Z,51.23
2019-03-22T13:02:42.484Z,51.31
2019-03-22T13:05:10.220Z,51.62
2019-03-22T13:07:38.320Z,51.83
2019-03-22T13:10:07.453Z,51.98
2019-03-22T13:12:35.536Z,52.07
2019-03-22T13:15:03.704Z,52.15
2019-03-22T13:17:31.850Z,52.09
2019-03-22T13:19:59.932Z,52.27
2019-03-22T13:22:28.034Z,52.07
2019-03-22T13:24:56.649Z,52.06
2019-03-22T13:27:26.369Z,52.06
2019-03-22T13:29:54.471Z,52.09
2019-03-22T13:32:22.554Z,52.24
2019-03-22T13:34:51.030Z,52.28
2019-03-22T13:37:19.582Z,52.34
2019-03-22T13:39:47.698Z,52.30
2019-03-22T13:42:25.113Z,52.57
2019-03-22T13:44:53.339Z,52.15
2019-03-22T13:47:27.823Z,52.39
2019-03-22T13:49:55.858Z,52.34
2019-03-22T13:52:24.474Z,52.31
2019-03-22T13:54:52.607Z,52.29
2019-03-22T13:57:21.141Z,53.03
2019-03-22T13:59:49.224Z,53.10
2019-03-22T14:02:23.069Z,52.31
2019-03-22T14:04:51.182Z,52.68
2019-03-22T14:07:19.266Z,52.40
2019-03-22T14:09:47.473Z,52.31
2019-03-22T14:12:15.657Z,52.29
2019-03-22T14:14:44.916Z,52.35
2019-03-22T14:17:13.264Z,52.14
2019-03-22T14:19:41.869Z,52.56
2019-03-22T14:25:20.247Z,52.53
2019-03-22T14:27:48.800Z,52.49
2019-03-22T14:30:16.928Z,52.36
2019-03-22T14:32:45.125Z,52.43
2019-03-22T14:35:13.290Z,52.28
2019-03-22T14:37:41.387Z,52.48
2019-03-22T14:40:15.596Z,52.58
2019-03-22T14:42:40.948Z,52.36
2019-03-22T14:45:12.401Z,52.11
2019-03-22T14:47:40.671Z,51.97
2019-03-22T14:50:08.905Z,51.84
2019-03-22T14:52:37.017Z,51.88
2019-03-22T14:55:05.110Z,52.10
2019-03-22T14:57:33.172Z,52.15
2019-03-22T15:00:01.322Z,52.07
2019-03-22T15:02:29.528Z,51.85
2019-03-22T15:04:57.645Z,51.98
2019-03-22T15:07:25.778Z,51.77
2019-03-22T15:09:53.900Z,51.83
2019-03-22T15:12:22.105Z,51.74
2019-03-22T15:15:04.626Z,52.02
2019-03-22T15:17:50.274Z,51.70
2019-03-22T15:20:40.650Z,51.74
2019-03-22T15:23:45.842Z,51.65
2019-03-22T15:26:31.307Z,51.48
2019-03-22T15:29:24.216Z,51.43
2019-03-22T15:32:11.606Z,51.45
2019-03-22T15:34:58.877Z,51.53
2019-03-22T15:37:45.526Z,51.43
2019-03-22T15:40:13.625Z,51.22
2019-03-22T15:42:41.693Z,51.17
2019-03-22T15:45:10.303Z,51.27
2019-03-22T15:47:38.481Z,51.28
2019-03-22T15:50:07.545Z,50.98
2019-03-22T15:52:35.609Z,51.05
2019-03-22T15:55:03.891Z,51.00
2019-03-22T15:57:32.059Z,50.93
2019-03-22T16:00:00.332Z,50.92
2019-03-22T16:02:28.855Z,51.24
2019-03-22T16:05:00.289Z,51.03
2019-03-22T16:07:28.446Z,51.01
2019-03-22T16:09:56.794Z,50.96
2019-03-22T16:12:25.255Z,50.67
2019-03-22T16:14:53.451Z,50.79
2019-03-22T16:17:21.478Z,50.81
2019-03-22T16:19:49.568Z,50.39
2019-03-22T16:22:17.819Z,50.29
2019-03-22T16:24:45.922Z,50.60
2019-03-22T16:27:14.109Z,50.54
2019-03-22T16:29:42.181Z,50.38
2019-03-22T16:32:10.250Z,50.37
2019-03-22T16:34:40.725Z,50.54
2019-03-22T16:37:08.987Z,50.47
2019-03-22T16:39:37.110Z,50.62
2019-03-22T16:42:05.184Z,50.44
2019-03-22T16:44:33.478Z,50.43
2019-03-22T16:47:01.541Z,50.30
2019-03-22T16:49:29.967Z,49.93
2019-03-22T16:51:59.244Z,49.83
2019-03-22T16:54:27.328Z,49.83
2019-03-22T16:56:55.388Z,49.85
2019-03-22T16:59:23.456Z,49.77
2019-03-22T17:01:51.624Z,49.82
2019-03-22T17:04:19.683Z,50.17
2019-03-22T17:06:47.771Z,50.17
2019-03-22T17:09:21.427Z,49.83
2019-03-22T17:15:00.164Z,49.74
2019-03-22T17:17:30.728Z,49.70
2019-03-22T17:20:00.377Z,49.87
2019-03-22T17:22:29.010Z,49.19
2019-03-22T17:24:58.359Z,49.99
2019-03-22T17:27:26.427Z,49.48
2019-03-22T17:29:54.458Z,49.85
2019-03-22T17:32:29.751Z,49.76
2019-03-22T17:34:57.886Z,49.81
2019-03-22T17:37:26.086Z,49.75
2019-03-22T17:39:54.119Z,49.61
2019-03-22T17:42:22.499Z,49.61
2019-03-22T17:44:50.490Z,49.68
2019-03-22T17:47:21.652Z,49.39
2019-03-22T17:49:50.755Z,49.63
2019-03-22T17:52:24.856Z,49.49
2019-03-22T17:54:52.896Z,49.70
2019-03-22T17:57:21.044Z,49.38
2019-03-22T17:59:59.959Z,49.66
2019-03-22T18:02:28.068Z,49.49
2019-03-22T18:04:56.202Z,49.76
2019-03-22T18:07:25.250Z,49.62
2019-03-22T18:09:53.294Z,49.82
2019-03-22T18:12:21.278Z,49.88
2019-03-22T18:14:50.359Z,50.02
2019-03-22T18:17:18.335Z,49.83
2019-03-22T18:19:46.347Z,49.38
2019-03-22T18:22:14.342Z,49.71
2019-03-22T18:24:42.327Z,49.53
2019-03-22T18:27:10.566Z,49.29
2019-03-22T18:29:38.569Z,49.10
2019-03-22T18:32:06.650Z,48.89
2019-03-22T18:34:35.123Z,48.97
2019-03-22T18:37:09.708Z,49.06
2019-03-22T18:39:37.685Z,48.66
2019-03-22T18:42:05.697Z,48.83
2019-03-22T18:44:33.845Z,48.67
2019-03-22T18:47:01.994Z,48.67
2019-03-22T18:49:30.067Z,48.09
2019-03-22T18:51:58.270Z,48.57
2019-03-22T18:54:26.293Z,48.83
2019-03-22T18:56:54.347Z,49.05
2019-03-22T18:59:22.440Z,48.75
2019-03-22T19:01:50.436Z,48.80
2019-03-22T19:04:18.534Z,48.45
2019-03-22T19:06:46.583Z,48.68
2019-03-22T19:09:14.577Z,48.47
2019-03-22T19:11:42.562Z,48.50
2019-03-22T19:14:10.538Z,48.75
2019-03-22T19:16:38.547Z,48.54
2019-03-22T19:19:06.686Z,48.60
2019-03-22T19:21:34.703Z,48.82
2019-03-22T19:24:02.713Z,48.81
2019-03-22T19:26:30.713Z,49.28
2019-03-22T19:28:58.786Z,49.22
2019-03-22T19:31:26.783Z,48.78
2019-03-22T19:33:54.882Z,49.29
2019-03-22T19:36:22.899Z,48.54
2019-03-22T19:38:50.878Z,48.80
2019-03-22T19:41:18.907Z,48.81
2019-03-22T19:43:46.895Z,49.21
2019-03-22T19:46:14.881Z,48.41
2019-03-22T19:48:42.866Z,48.92
2019-03-22T19:51:10.867Z,48.37
2019-03-22T19:53:38.866Z,48.52
2019-03-22T19:56:06.894Z,48.74
2019-03-22T19:58:34.921Z,48.53
2019-03-22T20:01:02.919Z,48.84
2019-03-22T20:03:30.919Z,49.63
2019-03-22T20:05:58.939Z,49.26
2019-03-22T20:08:26.923Z,48.44
2019-03-22T20:10:54.936Z,48.74
2019-03-22T20:13:22.945Z,49.43
2019-03-22T20:15:50.971Z,48.77
2019-03-22T20:18:18.994Z,48.79
2019-03-22T20:20:47.011Z,49.46
2019-03-22T20:23:15.299Z,48.50
2019-03-22T20:25:43.257Z,48.84
2019-03-22T20:28:11.271Z,49.31
2019-03-22T20:30:39.250Z,48.89
2019-03-22T20:33:07.399Z,48.32
2019-03-22T20:35:35.434Z,48.61
2019-03-22T20:38:03.424Z,49.08
2019-03-22T20:40:31.417Z,48.67
2019-03-22T20:43:02.125Z,48.75
2019-03-22T20:45:33.004Z,48.98
2019-03-22T20:48:01.046Z,48.13
2019-03-22T20:50:35.753Z,48.67
2019-03-22T20:52:58.762Z,49.11
2019-03-22T20:55:26.742Z,48.33
2019-03-22T20:57:54.725Z,48.71
2019-03-22T21:00:22.731Z,48.29
2019-03-22T21:02:50.741Z,48.71
2019-03-22T21:05:26.973Z,48.74
2019-03-22T21:07:48.629Z,48.59
2019-03-22T21:10:16.671Z,48.86
2019-03-22T21:12:44.688Z,49.76
2019-03-22T21:15:23.564Z,48.97
2019-03-22T21:17:42.402Z,48.23
2019-03-22T21:20:10.415Z,48.96
2019-03-22T21:22:39.479Z,49.77
2019-03-22T21:25:07.825Z,48.95
2019-03-22T21:27:35.817Z,49.94
2019-03-22T21:30:03.924Z,49.04
2019-03-22T21:32:31.982Z,48.48
2019-03-22T21:35:00.343Z,48.83
2019-03-22T21:37:28.380Z,49.38
2019-03-22T21:39:56.371Z,49.23
2019-03-22T21:42:24.654Z,48.51
2019-03-22T21:44:52.642Z,49.12
2019-03-22T21:47:20.667Z,49.44
2019-03-22T21:49:48.680Z,48.46
2019-03-22T21:52:16.670Z,48.86
2019-03-22T21:54:44.659Z,49.00
2019-03-22T21:57:12.707Z,49.49
2019-03-22T21:59:40.710Z,48.11
2019-03-22T22:02:08.703Z,49.35
2019-03-22T22:04:43.958Z,48.75
2019-03-22T22:07:11.984Z,49.25
2019-03-22T22:09:39.963Z,49.42
2019-03-22T22:12:08.026Z,49.80
2019-03-22T22:14:40.878Z,48.60
2019-03-22T22:17:05.726Z,49.25
2019-03-22T22:19:33.883Z,49.27
2019-03-22T22:22:01.946Z,49.53
2019-03-22T22:24:29.991Z,49.03
2019-03-22T22:26:57.993Z,48.07
2019-03-22T22:29:26.223Z,50.27
2019-03-22T22:31:55.187Z,49.47
2019-03-22T22:34:23.238Z,48.95
2019-03-22T22:36:51.538Z,48.18
2019-03-22T22:39:19.667Z,49.30
2019-03-22T22:41:47.664Z,49.91
2019-03-22T22:44:20.403Z,49.75
2019-03-22T22:46:48.449Z,48.70
2019-03-22T22:49:16.950Z,49.64
2019-03-22T22:51:44.967Z,49.76
2019-03-22T22:54:13.047Z,49.32
2019-03-22T22:56:41.146Z,49.07
2019-03-22T22:59:09.167Z,49.85
2019-03-22T23:01:37.324Z,48.98
2019-03-22T23:04:05.435Z,50.37
2019-03-22T23:06:33.559Z,49.51
2019-03-22T23:09:02.569Z,50.50
2019-03-22T23:11:30.761Z,50.16
2019-03-22T23:13:58.826Z,48.91
2019-03-22T23:16:26.820Z,49.34
2019-03-22T23:18:56.005Z,49.31
2019-03-22T23:21:24.018Z,50.04
2019-03-22T23:23:52.119Z,49.37
2019-03-22T23:26:20.107Z,50.06
2019-03-22T23:28:48.090Z,49.33
2019-03-22T23:31:16.107Z,49.05
2019-03-22T23:33:44.091Z,49.92
2019-03-22T23:36:19.857Z,49.01
2019-03-22T23:38:41.868Z,49.86
2019-03-22T23:41:10.135Z,49.39
2019-03-22T23:43:38.411Z,49.34
2019-03-22T23:46:06.394Z,49.86
2019-03-22T23:48:34.377Z,49.34
2019-03-22T23:51:02.376Z,49.54
2019-03-22T23:53:30.395Z,50.12
2019-03-22T23:55:58.374Z,49.89
2019-03-22T23:58:26.374Z,49.64
